createdAt,value
2023-05-19T00:01:22.175Z,2.13
2023-05-19T00:04:26.674Z,1.90
2023-05-19T00:07:33.983Z,1.93
2023-05-19T00:10:40.640Z,2.30
2023-05-19T00:13:48.484Z,2.00
2023-05-19T00:16:53.005Z,2.27
2023-05-19T00:19:56.847Z,1.97
2023-05-19T00:23:00.866Z,1.90
2023-05-19T00:26:06.174Z,1.67
2023-05-19T00:29:10.066Z,2.10
2023-05-19T00:32:13.986Z,2.00
2023-05-19T00:35:18.222Z,2.00
2023-05-19T00:38:22.020Z,2.63
2023-05-19T00:41:27.680Z,2.37
2023-05-19T00:44:31.532Z,2.13
2023-05-19T00:47:36.033Z,2.00
2023-05-19T00:50:40.189Z,2.40
2023-05-19T00:53:48.723Z,2.57
2023-05-19T00:56:54.832Z,1.87
2023-05-19T00:59:58.930Z,1.90
2023-05-19T01:03:03.294Z,1.83
2023-05-19T01:06:07.791Z,2.10
2023-05-19T01:09:12.404Z,2.30
2023-05-19T01:12:17.801Z,2.50
2023-05-19T01:15:21.836Z,2.40
2023-05-19T01:18:32.440Z,2.20
2023-05-19T01:22:24.449Z,2.40
2023-05-19T01:26:07.269Z,1.87
2023-05-19T01:29:30.650Z,2.60
2023-05-19T01:32:37.592Z,2.00
2023-05-19T01:35:43.494Z,2.40
2023-05-19T01:38:48.386Z,2.20
2023-05-19T01:41:54.012Z,2.37
2023-05-19T01:44:58.536Z,2.30
2023-05-19T01:48:08.468Z,2.20
2023-05-19T01:51:15.816Z,2.80
2023-05-19T01:54:20.118Z,2.40
2023-05-19T01:57:34.084Z,2.40
2023-05-19T02:00:53.015Z,2.93
2023-05-19T02:04:30.660Z,2.40
2023-05-19T02:07:44.032Z,2.37
2023-05-19T02:10:53.442Z,2.03
2023-05-19T02:14:01.192Z,2.30
2023-05-19T02:17:07.145Z,2.77
2023-05-19T02:20:13.614Z,2.57
2023-05-19T02:23:17.648Z,2.30
2023-05-19T02:26:21.788Z,2.43
2023-05-19T02:29:26.160Z,2.13
2023-05-19T02:32:30.340Z,2.17
2023-05-19T02:35:35.854Z,2.27
2023-05-19T02:38:39.928Z,2.73
2023-05-19T02:41:44.098Z,2.60
2023-05-19T02:44:48.193Z,2.37
2023-05-19T02:47:52.299Z,2.27
2023-05-19T02:50:57.749Z,2.67
2023-05-19T02:54:01.843Z,2.13
2023-05-19T02:57:06.174Z,2.87
2023-05-19T03:00:11.533Z,2.90
2023-05-19T03:03:15.805Z,2.63
2023-05-19T03:06:23.575Z,2.37
2023-05-19T03:09:27.802Z,2.50
2023-05-19T03:12:31.927Z,2.90
2023-05-19T03:15:37.002Z,3.47
2023-05-19T03:18:41.022Z,3.10
2023-05-19T03:21:46.693Z,3.10
2023-05-19T03:24:51.929Z,2.27
2023-05-19T03:27:56.074Z,2.80
2023-05-19T03:31:00.108Z,2.97
2023-05-19T03:34:09.561Z,2.93
2023-05-19T03:37:15.031Z,2.87
2023-05-19T03:40:19.265Z,2.60
2023-05-19T03:43:23.957Z,3.00
2023-05-19T03:46:35.287Z,3.03
2023-05-19T03:49:57.216Z,2.73
2023-05-19T03:53:31.855Z,2.57
2023-05-19T03:56:36.236Z,3.33
2023-05-19T03:59:41.640Z,3.23
2023-05-19T04:02:45.752Z,2.93
2023-05-19T04:05:50.297Z,3.30
2023-05-19T04:08:56.054Z,3.20
2023-05-19T04:11:59.879Z,2.97
2023-05-19T04:15:04.001Z,3.23
2023-05-19T04:18:08.132Z,2.90
2023-05-19T04:21:12.219Z,3.40
2023-05-19T04:24:17.528Z,3.47
2023-05-19T04:27:22.311Z,2.53
2023-05-19T04:30:27.130Z,3.03
2023-05-19T04:33:31.057Z,3.30
2023-05-19T04:36:35.542Z,3.50
2023-05-19T04:39:43.331Z,3.57
2023-05-19T04:42:50.179Z,3.73
2023-05-19T04:45:54.942Z,3.97
2023-05-19T04:49:01.520Z,3.40
2023-05-19T04:52:07.115Z,3.80
2023-05-19T04:55:13.499Z,3.87
2023-05-19T04:58:18.603Z,3.30
2023-05-19T05:01:26.434Z,3.50
2023-05-19T05:04:32.152Z,3.70
2023-05-19T05:07:36.117Z,3.77
2023-05-19T05:10:41.770Z,4.33
2023-05-19T05:13:46.546Z,3.70
2023-05-19T05:16:52.404Z,3.60
2023-05-19T05:20:00.630Z,3.77
2023-05-19T05:23:05.337Z,4.10
2023-05-19T05:26:20.168Z,3.80
2023-05-19T05:29:26.688Z,4.07
2023-05-19T05:32:31.434Z,3.50
2023-05-19T05:35:36.641Z,4.03
2023-05-19T05:38:42.074Z,4.17
2023-05-19T05:41:47.773Z,4.53
2023-05-19T05:44:51.945Z,3.73
2023-05-19T05:47:56.664Z,4.57
2023-05-19T05:51:01.466Z,4.00
2023-05-19T05:54:09.692Z,4.38
2023-05-19T05:57:19.806Z,5.30
2023-05-19T06:00:24.368Z,4.83
2023-05-19T06:03:30.307Z,4.28
2023-05-19T06:06:39.529Z,5.18
2023-05-19T06:09:43.718Z,5.10
2023-05-19T06:12:49.512Z,5.07
2023-05-19T06:15:54.067Z,4.55
2023-05-19T06:19:03.000Z,5.35
2023-05-19T06:22:07.016Z,5.80
2023-05-19T06:25:11.925Z,5.25
2023-05-19T06:28:17.945Z,5.35
2023-05-19T06:31:22.274Z,5.63
2023-05-19T06:34:30.109Z,5.70
2023-05-19T06:37:34.287Z,5.82
2023-05-19T06:40:38.694Z,5.05
2023-05-19T06:43:44.438Z,5.30
2023-05-19T06:46:51.291Z,5.93
2023-05-19T06:49:57.067Z,5.90
2023-05-19T06:53:04.778Z,6.00
2023-05-19T06:56:09.384Z,5.47
2023-05-19T06:59:17.594Z,5.15
2023-05-19T07:02:22.172Z,6.13
2023-05-19T07:05:26.319Z,6.40
2023-05-19T07:08:34.937Z,6.18
2023-05-19T07:11:40.361Z,6.63
2023-05-19T07:14:47.114Z,6.47
2023-05-19T07:17:53.211Z,6.55
2023-05-19T07:20:58.005Z,6.28
2023-05-19T07:24:02.735Z,6.55
2023-05-19T07:27:07.411Z,5.85
2023-05-19T07:30:14.157Z,7.05
2023-05-19T07:33:18.169Z,6.50
2023-05-19T07:36:22.272Z,6.70
2023-05-19T07:39:29.920Z,7.25
2023-05-19T07:42:34.007Z,8.15
2023-05-19T07:45:39.670Z,6.93
2023-05-19T07:48:43.787Z,6.45
2023-05-19T07:51:47.994Z,7.43
2023-05-19T07:54:52.092Z,7.47
2023-05-19T07:57:56.593Z,7.88
2023-05-19T08:01:02.555Z,7.00
2023-05-19T08:04:07.316Z,8.13
2023-05-19T08:07:12.587Z,7.25
2023-05-19T08:10:16.663Z,7.05
2023-05-19T08:13:20.732Z,7.10
2023-05-19T08:16:26.424Z,7.00
2023-05-19T08:19:30.563Z,7.70
2023-05-19T08:22:34.641Z,7.57
2023-05-19T08:25:38.740Z,7.63
2023-05-19T08:28:42.895Z,7.05
2023-05-19T08:31:48.556Z,7.70
2023-05-19T08:34:52.692Z,7.18
2023-05-19T08:37:56.825Z,7.25
2023-05-19T08:41:00.873Z,6.82
2023-05-19T08:44:05.354Z,6.40
2023-05-19T08:47:14.134Z,7.22
2023-05-19T08:50:23.293Z,7.60
2023-05-19T08:53:34.355Z,7.88
2023-05-19T08:56:40.077Z,8.18
2023-05-19T08:59:45.469Z,7.68
2023-05-19T09:03:00.425Z,8.20
2023-05-19T09:06:10.455Z,7.60
2023-05-19T09:09:14.596Z,7.55
2023-05-19T09:12:18.650Z,8.43
2023-05-19T09:15:27.674Z,8.10
2023-05-19T09:18:33.584Z,8.73
2023-05-19T09:21:37.863Z,8.18
2023-05-19T09:24:42.139Z,8.57
2023-05-19T09:27:47.027Z,8.00
2023-05-19T09:30:51.168Z,8.75
2023-05-19T09:33:58.109Z,8.45
2023-05-19T09:37:02.475Z,8.88
2023-05-19T09:40:11.139Z,7.90
2023-05-19T09:43:16.010Z,7.90
2023-05-19T09:46:20.138Z,8.30
2023-05-19T09:49:27.617Z,9.05
2023-05-19T09:52:32.009Z,8.77
2023-05-19T09:55:36.654Z,9.48
2023-05-19T09:58:44.014Z,8.98
2023-05-19T10:01:49.968Z,10.07
2023-05-19T10:04:56.981Z,9.23
2023-05-19T10:08:01.708Z,9.75
2023-05-19T10:11:07.109Z,10.57
2023-05-19T10:14:11.267Z,8.95
2023-05-19T10:17:16.111Z,9.68
2023-05-19T10:20:21.954Z,9.18
2023-05-19T10:23:26.255Z,10.43
2023-05-19T10:26:31.550Z,9.60
2023-05-19T10:29:41.492Z,9.52
2023-05-19T10:32:48.941Z,9.32
2023-05-19T10:36:14.612Z,8.88
2023-05-19T10:39:20.909Z,9.60
2023-05-19T10:42:35.441Z,9.57
2023-05-19T10:45:47.796Z,8.98
2023-05-19T10:48:51.831Z,9.82
2023-05-19T10:51:58.669Z,9.73
2023-05-19T10:55:03.097Z,10.82
2023-05-19T10:58:07.167Z,10.00
2023-05-19T11:01:14.594Z,10.05
2023-05-19T11:04:19.540Z,10.85
2023-05-19T11:07:25.965Z,10.02
2023-05-19T11:10:29.999Z,11.45
2023-05-19T11:13:34.079Z,10.77
2023-05-19T11:16:38.160Z,9.77
2023-05-19T11:19:53.793Z,9.65
2023-05-19T11:23:07.601Z,6.55
2023-05-19T11:26:12.083Z,7.30
2023-05-19T11:29:16.822Z,7.03
2023-05-19T11:32:22.740Z,7.57
2023-05-19T11:35:27.957Z,7.75
2023-05-19T11:38:34.055Z,6.90
2023-05-19T11:41:41.189Z,7.43
2023-05-19T11:44:46.820Z,8.00
2023-05-19T11:48:01.283Z,7.47
2023-05-19T11:51:08.499Z,7.63
2023-05-19T11:54:14.499Z,6.90
2023-05-19T11:57:18.980Z,7.82
2023-05-19T12:00:25.374Z,7.18
2023-05-19T12:03:30.002Z,7.55
2023-05-19T12:06:34.993Z,8.18
2023-05-19T12:09:40.714Z,8.02
2023-05-19T12:12:46.512Z,8.05
2023-05-19T12:15:53.600Z,8.63
2023-05-19T12:18:57.819Z,8.43
2023-05-19T12:22:04.007Z,8.75
2023-05-19T12:25:11.668Z,8.25
2023-05-19T12:28:17.793Z,7.53
2023-05-19T12:31:23.941Z,8.85
2023-05-19T12:34:28.068Z,8.27
2023-05-19T12:37:33.567Z,7.78
2023-05-19T12:40:40.018Z,7.57
2023-05-19T12:43:44.569Z,8.30
2023-05-19T12:46:48.528Z,7.30
2023-05-19T12:50:02.348Z,7.80
2023-05-19T12:53:10.416Z,7.43
2023-05-19T12:56:17.838Z,8.02
2023-05-19T12:59:37.376Z,7.50
2023-05-19T13:02:58.142Z,7.55
2023-05-19T13:06:02.379Z,7.95
2023-05-19T13:09:07.500Z,7.78
2023-05-19T13:12:13.143Z,7.72
2023-05-19T13:15:17.471Z,8.05
2023-05-19T13:18:21.703Z,8.63
2023-05-19T13:21:25.757Z,7.93
2023-05-19T13:24:29.992Z,8.02
2023-05-19T13:27:35.692Z,8.48
2023-05-19T13:30:41.093Z,8.63
2023-05-19T13:33:45.209Z,7.72
2023-05-19T13:36:49.364Z,7.57
2023-05-19T13:39:53.410Z,7.30
2023-05-19T13:42:59.317Z,7.93
2023-05-19T13:46:03.428Z,8.27
2023-05-19T13:49:07.681Z,7.93
2023-05-19T13:52:12.017Z,8.18
2023-05-19T13:55:16.619Z,8.35
2023-05-19T13:58:22.819Z,8.27
2023-05-19T14:01:26.996Z,8.23
2023-05-19T14:04:31.074Z,8.18
2023-05-19T14:07:36.012Z,8.20
2023-05-19T14:10:40.130Z,8.50
2023-05-19T14:13:45.690Z,8.02
2023-05-19T14:16:49.850Z,8.85
2023-05-19T14:19:54.093Z,8.38
2023-05-19T14:22:58.169Z,6.85
2023-05-19T14:26:02.275Z,7.20
2023-05-19T14:29:07.810Z,5.97
2023-05-19T14:32:11.976Z,6.10
2023-05-19T14:35:16.102Z,5.70
2023-05-19T14:38:19.825Z,5.75
2023-05-19T14:41:24.073Z,6.20
2023-05-19T14:44:34.208Z,6.10
2023-05-19T14:47:38.360Z,6.13
2023-05-19T14:50:42.514Z,5.18
2023-05-19T14:53:46.646Z,5.40
2023-05-19T14:56:50.814Z,6.90
2023-05-19T14:59:56.334Z,8.70
2023-05-19T15:03:00.436Z,7.07
2023-05-19T15:06:04.473Z,7.65
2023-05-19T15:09:08.519Z,7.68
2023-05-19T15:12:12.599Z,6.30
2023-05-19T15:15:18.287Z,9.77
2023-05-19T15:18:22.317Z,8.52
2023-05-19T15:21:26.469Z,8.43
2023-05-19T15:24:30.616Z,11.35
2023-05-19T15:27:36.662Z,8.43
2023-05-19T15:30:43.329Z,9.05
2023-05-19T15:33:47.456Z,8.98
2023-05-19T15:36:51.517Z,9.23
2023-05-19T15:39:56.112Z,8.98
2023-05-19T15:43:00.246Z,8.55
2023-05-19T15:46:06.360Z,9.05
2023-05-19T15:49:12.850Z,9.48
2023-05-19T15:52:17.445Z,8.60
2023-05-19T15:55:22.218Z,9.13
2023-05-19T15:58:26.373Z,10.13
2023-05-19T16:01:32.171Z,9.23
2023-05-19T16:04:36.282Z,9.55
2023-05-19T16:07:42.352Z,9.93
2023-05-19T16:10:46.506Z,8.75
2023-05-19T16:13:50.508Z,9.05
2023-05-19T16:16:56.035Z,8.57
2023-05-19T16:20:00.177Z,9.10
2023-05-19T16:23:04.458Z,9.48
2023-05-19T16:26:08.439Z,9.05
2023-05-19T16:29:12.934Z,9.48
2023-05-19T16:32:18.635Z,9.50
2023-05-19T16:35:22.907Z,9.25
2023-05-19T16:38:27.098Z,9.27
2023-05-19T16:41:31.133Z,8.55
2023-05-19T16:44:35.169Z,8.80
2023-05-19T16:47:40.737Z,8.23
2023-05-19T16:50:44.756Z,9.20
2023-05-19T16:53:48.831Z,8.77
2023-05-19T16:56:53.782Z,8.88
2023-05-19T16:59:57.924Z,9.88
2023-05-19T17:03:03.598Z,9.48
2023-05-19T17:06:07.865Z,8.55
2023-05-19T17:09:11.896Z,9.95
2023-05-19T17:12:16.083Z,9.75
2023-05-19T17:15:20.179Z,7.93
2023-05-19T17:18:25.695Z,8.50
2023-05-19T17:21:29.792Z,8.85
2023-05-19T17:24:34.707Z,8.82
2023-05-19T17:27:38.797Z,9.00
2023-05-19T17:30:43.018Z,9.05
2023-05-19T17:33:48.597Z,9.57
2023-05-19T17:36:52.617Z,10.77
2023-05-19T17:39:56.630Z,10.85
2023-05-19T17:43:00.729Z,11.88
2023-05-19T17:46:05.007Z,10.57
2023-05-19T17:49:10.905Z,11.90
2023-05-19T17:52:16.229Z,11.00
2023-05-19T17:55:21.397Z,10.18
2023-05-19T17:58:26.087Z,11.23
2023-05-19T18:01:30.592Z,11.60
2023-05-19T18:04:36.753Z,11.55
2023-05-19T18:07:41.614Z,12.88
2023-05-19T18:10:46.330Z,13.75
2023-05-19T18:13:50.388Z,15.95
2023-05-19T18:16:54.438Z,16.27
2023-05-19T18:19:59.993Z,16.90
2023-05-19T18:23:04.092Z,18.75
2023-05-19T18:26:08.143Z,16.83
2023-05-19T18:29:13.993Z,15.70
2023-05-19T18:32:18.237Z,19.58
2023-05-19T18:35:23.800Z,16.55
2023-05-19T18:38:28.029Z,14.77
2023-05-19T18:41:32.447Z,11.05
2023-05-19T18:44:36.575Z,13.20
2023-05-19T18:47:40.586Z,16.15
2023-05-19T18:50:46.163Z,19.13
2023-05-19T18:53:51.045Z,13.73
2023-05-19T18:56:56.457Z,12.48
2023-05-19T19:00:00.594Z,12.95
2023-05-19T19:03:04.808Z,11.57
2023-05-19T19:06:10.347Z,13.35
2023-05-19T19:09:14.477Z,13.95
2023-05-19T19:12:20.292Z,14.23
2023-05-19T19:15:24.655Z,13.18
2023-05-19T19:18:28.818Z,13.25
2023-05-19T19:21:34.238Z,14.35
2023-05-19T19:24:38.340Z,14.45
2023-05-19T19:27:42.276Z,12.07
2023-05-19T19:30:47.144Z,14.75
2023-05-19T19:33:51.183Z,13.98
2023-05-19T19:36:56.600Z,14.18
2023-05-19T19:40:00.538Z,13.13
2023-05-19T19:43:04.539Z,12.75
2023-05-19T19:46:09.490Z,13.18
2023-05-19T19:49:13.556Z,10.77
2023-05-19T19:52:19.015Z,10.63
2023-05-19T19:55:23.121Z,11.07
2023-05-19T19:58:27.813Z,10.80
2023-05-19T20:01:31.790Z,12.43
2023-05-19T20:04:36.035Z,12.05
2023-05-19T20:07:41.558Z,12.43
2023-05-19T20:10:45.530Z,11.05
2023-05-19T20:13:49.546Z,10.45
2023-05-19T20:16:53.488Z,10.98
2023-05-19T20:19:58.599Z,9.85
2023-05-19T20:23:04.049Z,10.18
2023-05-19T20:26:11.883Z,10.05
2023-05-19T20:29:17.145Z,9.95
2023-05-19T20:32:21.110Z,9.73
2023-05-19T20:35:25.424Z,9.50
2023-05-19T20:38:30.919Z,9.73
2023-05-19T20:41:34.891Z,9.23
2023-05-19T20:44:38.828Z,8.93
2023-05-19T20:47:42.950Z,9.33
2023-05-19T20:50:47.284Z,9.15
2023-05-19T20:53:52.983Z,9.52
2023-05-19T20:56:56.990Z,10.18
2023-05-19T21:00:01.140Z,10.55
2023-05-19T21:03:05.243Z,10.43
2023-05-19T21:06:09.298Z,15.30
2023-05-19T21:09:15.052Z,21.10
2023-05-19T21:12:20.589Z,21.13
2023-05-19T21:15:27.203Z,20.38
2023-05-19T21:18:31.291Z,18.90
2023-05-19T21:21:35.325Z,18.27
2023-05-19T21:24:40.710Z,18.50
2023-05-19T21:27:46.515Z,17.37
2023-05-19T21:30:50.483Z,17.05
2023-05-19T21:33:54.565Z,16.20
2023-05-19T21:36:58.543Z,16.50
2023-05-19T21:40:04.024Z,15.33
2023-05-19T21:43:07.953Z,16.60
2023-05-19T21:46:12.362Z,16.50
2023-05-19T21:49:16.701Z,13.65
2023-05-19T21:52:20.908Z,14.10
2023-05-19T21:55:26.341Z,12.97
2023-05-19T21:58:30.273Z,12.23
2023-05-19T22:01:34.316Z,12.30
2023-05-19T22:04:38.962Z,11.93
2023-05-19T22:07:43.217Z,12.13
2023-05-19T22:10:51.418Z,11.27
2023-05-19T22:13:55.908Z,11.00
2023-05-19T22:16:59.946Z,10.53
2023-05-19T22:20:04.045Z,10.13
2023-05-19T22:23:07.946Z,10.57
2023-05-19T22:26:13.394Z,10.33
2023-05-19T22:29:18.902Z,10.37
2023-05-19T22:32:22.853Z,10.43
2023-05-19T22:35:27.078Z,9.77
2023-05-19T22:38:31.109Z,9.73
2023-05-19T22:41:37.071Z,9.37
2023-05-19T22:44:41.087Z,9.23
2023-05-19T22:47:45.092Z,8.87
2023-05-19T22:50:49.090Z,8.90
2023-05-19T22:53:53.073Z,9.53
2023-05-19T22:56:58.417Z,9.10
2023-05-19T23:00:02.429Z,8.80
2023-05-19T23:03:06.617Z,8.90
2023-05-19T23:06:10.657Z,8.67
2023-05-19T23:09:16.125Z,8.23
2023-05-19T23:12:21.426Z,8.03
2023-05-19T23:15:25.468Z,7.90
2023-05-19T23:18:29.517Z,7.80
2023-05-19T23:21:34.045Z,8.07
2023-05-19T23:24:37.828Z,8.03
2023-05-19T23:27:43.243Z,7.70
2023-05-19T23:30:47.145Z,7.20
2023-05-19T23:33:51.141Z,7.60
2023-05-19T23:36:55.013Z,7.70
2023-05-19T23:39:59.095Z,7.57
2023-05-19T23:43:04.574Z,7.67
2023-05-19T23:46:08.619Z,8.30
2023-05-19T23:49:12.722Z,7.70
2023-05-19T23:52:17.044Z,8.20
2023-05-19T23:55:21.719Z,8.77
2023-05-19T23:58:27.129Z,8.47
